Terminal Aerodrome Forecast
Issued by NWS

Current Version | Previous Version | Text Only | Print | Product List | Glossary On
Versions: 1 2 3 4 5 6 7 8 9 10 11 12 13 14 15 16 17
403
FTUS43 KIND 291519 AAA
TAFLAF
TAF AMD
KLAF 291519Z 2915/3012 04008KT 2SM SHRA OVC007
     FM291800 07010KT 3SM SHRA OVC008
     FM300000 08012KT 3SM SHRA VCTS OVC010CB
     FM300300 08011KT 2SM SHRA VCTS OVC010CB
     FM300600 09009KT 2SM SHRA OVC010=

USA.gov is the U.S. government's official web portal to all federal, state and local government web resources and services.